Time;durP1;ratioP1;P1;durP2;ratioP2;P2;SDS_P1;SDS_P2;PMS_P1;PMS_P2;Temp;Humidity;BMP_temperature;BMP_pressure;BME280_temperature;BME280_humidity;BME280_pressure;Samples;Min_cycle;Max_cycle;Signal;HPM_P1;HPM_P2
2022/09/24 00:01:21;;;;;;;4.88;3.20;;;;;;;;;;5051570;28;20103;-62
2022/09/24 00:03:53;;;;;;;5.45;2.92;;;;;;;;;;5050211;28;20067;-61
2022/09/24 00:06:20;;;;;;;6.30;2.97;;;;;;;;;;5050514;28;20040;-61
2022/09/24 00:08:48;;;;;;;7.28;2.78;;;;;;;;;;5050850;28;20472;-62
2022/09/24 00:11:16;;;;;;;5.30;3.17;;;;;;;;;;5050495;28;20041;-61
2022/09/24 00:13:42;;;;;;;4.55;2.60;;;;;;;;;;5047449;28;20119;-60
2022/09/24 00:16:11;;;;;;;5.32;2.70;;;;;;;;;;5052248;28;20037;-60
2022/09/24 00:18:38;;;;;;;5.60;2.30;;;;;;;;;;5052215;28;20021;-63
2022/09/24 00:21:32;;;;;;;4.40;2.97;;;;;;;;;;5051953;28;20065;-61
2022/09/24 00:24:01;;;;;;;5.28;2.53;;;;;;;;;;5048727;28;20080;-63
2022/09/24 00:29:13;;;;;;;7.80;3.05;;;;;;;;;;5051783;28;20468;-63
2022/09/24 00:31:39;;;;;;;11.90;4.10;;;;;;;;;;5051880;28;20029;-64
2022/09/24 00:34:05;;;;;;;16.58;4.40;;;;;;;;;;5051619;28;20048;-61
2022/09/24 00:36:31;;;;;;;13.95;3.70;;;;;;;;;;5051438;28;20033;-62
2022/09/24 00:38:58;;;;;;;9.38;2.97;;;;;;;;;;5048954;28;20160;-61
2022/09/24 00:41:27;;;;;;;5.90;3.35;;;;;;;;;;5051327;28;20047;-60
2022/09/24 00:43:53;;;;;;;7.07;3.25;;;;;;;;;;5051306;28;20052;-61
2022/09/24 00:46:24;;;;;;;6.43;3.00;;;;;;;;;;5033115;28;20021;-61
2022/09/24 00:48:53;;;;;;;5.72;3.20;;;;;;;;;;5050794;28;20035;-61
2022/09/24 00:51:21;;;;;;;10.20;3.38;;;;;;;;;;5044566;28;20056;-62
2022/09/24 00:53:52;;;;;;;5.90;3.00;;;;;;;;;;5051380;28;20029;-61
2022/09/24 00:56:19;;;;;;;6.60;3.28;;;;;;;;;;5051146;28;20068;-61
2022/09/24 00:58:56;;;;;;;9.65;3.80;;;;;;;;;;5046130;28;20119;-61
2022/09/24 01:01:24;;;;;;;6.47;3.55;;;;;;;;;;5047123;28;20470;-62
2022/09/24 01:03:54;;;;;;;5.88;3.40;;;;;;;;;;5046772;28;20403;-62
2022/09/24 01:06:20;;;;;;;7.85;3.45;;;;;;;;;;5050354;28;20033;-62
2022/09/24 01:08:46;;;;;;;5.43;3.33;;;;;;;;;;5050720;28;20032;-61
2022/09/24 01:11:47;;;;;;;8.60;2.95;;;;;;;;;;5046560;28;20037;-61
2022/09/24 01:14:16;;;;;;;13.02;4.07;;;;;;;;;;5022271;28;20041;-62
2022/09/24 01:17:11;;;;;;;4.80;2.97;;;;;;;;;;5041410;28;20060;-61
2022/09/24 01:19:48;;;;;;;6.85;2.92;;;;;;;;;;5050972;28;20055;-62
2022/09/24 01:22:44;;;;;;;10.10;3.63;;;;;;;;;;5050826;28;20032;-62
2022/09/24 01:25:35;;;;;;;7.25;3.70;;;;;;;;;;5050795;28;20554;-60
2022/09/24 01:28:43;;;;;;;6.80;3.22;;;;;;;;;;5050612;28;20033;-61
2022/09/24 01:31:32;;;;;;;4.60;3.20;;;;;;;;;;5028989;28;20041;-61
2022/09/24 01:34:04;;;;;;;5.15;3.40;;;;;;;;;;5049404;28;20142;-61
2022/09/24 01:36:34;;;;;;;5.60;3.88;;;;;;;;;;5048726;28;20048;-61
2022/09/24 01:39:02;;;;;;;7.25;3.88;;;;;;;;;;5050218;28;20052;-61
2022/09/24 01:41:28;;;;;;;5.72;3.42;;;;;;;;;;5050381;28;20028;-61
2022/09/24 01:43:54;;;;;;;8.07;3.05;;;;;;;;;;5050168;28;20052;-62
2022/09/24 01:46:21;;;;;;;8.07;3.53;;;;;;;;;;5050176;28;20472;-61
2022/09/24 01:48:48;;;;;;;5.35;3.28;;;;;;;;;;5050423;28;20108;-61
2022/09/24 01:51:16;;;;;;;7.18;3.22;;;;;;;;;;5050117;28;20025;-62
2022/09/24 01:53:45;;;;;;;4.55;3.22;;;;;;;;;;5050181;28;20476;-61
2022/09/24 01:56:17;;;;;;;5.93;3.10;;;;;;;;;;5050290;28;20028;-62
2022/09/24 01:59:01;;;;;;;6.38;3.05;;;;;;;;;;5050045;28;20037;-62
2022/09/24 02:01:43;;;;;;;4.50;3.00;;;;;;;;;;5049924;28;20043;-62
2022/09/24 02:04:15;;;;;;;6.50;3.28;;;;;;;;;;5049802;28;20155;-62
2022/09/24 02:06:54;;;;;;;4.90;3.20;;;;;;;;;;5050448;28;20033;-60
2022/09/24 02:09:47;;;;;;;5.72;3.17;;;;;;;;;;5048364;28;20515;-62
2022/09/24 02:12:18;;;;;;;6.90;3.80;;;;;;;;;;5049726;28;20057;-60
2022/09/24 02:14:53;;;;;;;7.82;3.22;;;;;;;;;;5049931;28;20438;-61
2022/09/24 02:17:22;;;;;;;15.93;4.10;;;;;;;;;;5050466;28;20399;-61
2022/09/24 02:19:49;;;;;;;10.70;4.35;;;;;;;;;;5049836;28;20047;-60
2022/09/24 02:22:17;;;;;;;11.38;4.28;;;;;;;;;;5049972;28;20045;-61
2022/09/24 02:24:48;;;;;;;7.63;4.05;;;;;;;;;;5050444;28;20029;-61
2022/09/24 02:27:15;;;;;;;9.13;3.97;;;;;;;;;;5051385;28;20025;-61
2022/09/24 02:29:40;;;;;;;10.18;4.25;;;;;;;;;;5053803;28;20108;-61
2022/09/24 02:32:09;;;;;;;6.97;3.70;;;;;;;;;;5054264;28;20124;-61
2022/09/24 02:34:40;;;;;;;12.75;4.18;;;;;;;;;;5053660;28;20487;-61
2022/09/24 02:37:10;;;;;;;8.73;5.18;;;;;;;;;;5053757;28;20044;-61
2022/09/24 02:39:35;;;;;;;11.73;4.22;;;;;;;;;;5052850;28;20253;-60
2022/09/24 02:42:04;;;;;;;6.70;4.25;;;;;;;;;;5053545;28;20395;-61
2022/09/24 02:44:31;;;;;;;6.28;4.20;;;;;;;;;;5053102;28;20104;-61
2022/09/24 02:46:57;;;;;;;10.13;4.57;;;;;;;;;;5053714;28;20029;-62
2022/09/24 02:49:23;;;;;;;10.57;5.00;;;;;;;;;;5053160;28;20028;-61
2022/09/24 02:51:49;;;;;;;8.90;4.90;;;;;;;;;;5053541;28;20112;-62
2022/09/24 02:54:15;;;;;;;10.60;4.72;;;;;;;;;;5053194;28;20695;-63
2022/09/24 02:56:41;;;;;;;5.53;4.18;;;;;;;;;;5053873;28;20029;-61
2022/09/24 02:59:07;;;;;;;6.97;4.70;;;;;;;;;;5053528;28;20032;-62
2022/09/24 03:01:33;;;;;;;8.90;4.30;;;;;;;;;;5052992;28;20083;-62
2022/09/24 03:03:59;;;;;;;6.90;4.00;;;;;;;;;;5053516;28;20036;-61
2022/09/24 03:06:26;;;;;;;7.65;4.38;;;;;;;;;;5053504;28;20112;-60
2022/09/24 03:08:52;;;;;;;6.53;4.05;;;;;;;;;;5053118;28;20029;-62
2022/09/24 03:11:20;;;;;;;8.18;4.38;;;;;;;;;;5053515;28;20040;-61
2022/09/24 03:13:46;;;;;;;8.90;4.20;;;;;;;;;;5053260;28;20025;-61
2022/09/24 03:16:12;;;;;;;8.02;3.78;;;;;;;;;;5053586;28;20029;-62
2022/09/24 03:18:37;;;;;;;7.90;3.83;;;;;;;;;;5055066;28;20056;-61
2022/09/24 03:21:07;;;;;;;9.32;4.00;;;;;;;;;;5056190;28;20114;-61
2022/09/24 03:23:34;;;;;;;6.10;3.72;;;;;;;;;;5055528;28;20112;-61
2022/09/24 03:26:00;;;;;;;7.10;3.55;;;;;;;;;;5055776;28;20464;-63
2022/09/24 03:28:26;;;;;;;5.50;3.47;;;;;;;;;;5055723;28;20029;-61
2022/09/24 03:30:58;;;;;;;6.90;4.00;;;;;;;;;;5055310;28;20032;-61
2022/09/24 03:33:45;;;;;;;7.15;3.80;;;;;;;;;;5053664;28;20051;-61
2022/09/24 03:36:15;;;;;;;5.43;3.78;;;;;;;;;;5055244;28;20037;-60
2022/09/24 03:38:43;;;;;;;10.50;3.80;;;;;;;;;;5055300;28;20036;-65
2022/09/24 03:41:10;;;;;;;7.70;3.72;;;;;;;;;;5054700;28;20036;-62
2022/09/24 03:43:36;;;;;;;7.35;4.55;;;;;;;;;;5055066;28;20152;-62
2022/09/24 03:46:05;;;;;;;5.45;3.80;;;;;;;;;;5055229;28;20095;-61
2022/09/24 03:48:33;;;;;;;9.52;4.53;;;;;;;;;;5055105;28;20037;-61
2022/09/24 03:51:18;;;;;;;8.25;4.05;;;;;;;;;;5054832;28;20033;-60
2022/09/24 03:53:45;;;;;;;5.10;3.75;;;;;;;;;;5054860;28;20064;-63
2022/09/24 03:56:12;;;;;;;7.28;3.90;;;;;;;;;;5054956;28;20017;-61
2022/09/24 03:58:38;;;;;;;8.27;4.13;;;;;;;;;;5054803;28;20111;-61
2022/09/24 04:01:06;;;;;;;9.40;4.43;;;;;;;;;;5054951;28;20029;-61
2022/09/24 04:03:32;;;;;;;4.32;3.58;;;;;;;;;;5054830;28;20033;-61
2022/09/24 04:05:58;;;;;;;13.15;4.75;;;;;;;;;;5054973;28;20032;-62
2022/09/24 04:08:24;;;;;;;5.88;4.30;;;;;;;;;;5054830;28;20040;-61
2022/09/24 04:10:51;;;;;;;7.32;3.90;;;;;;;;;;5054583;28;20033;-61
2022/09/24 04:13:17;;;;;;;9.13;4.30;;;;;;;;;;5054231;28;20120;-62
2022/09/24 04:15:43;;;;;;;9.00;3.97;;;;;;;;;;5054575;28;20372;-61
2022/09/24 04:18:09;;;;;;;9.90;4.10;;;;;;;;;;5042953;28;20080;-60
2022/09/24 04:20:36;;;;;;;7.55;3.97;;;;;;;;;;5054196;28;20472;-60
2022/09/24 04:23:02;;;;;;;6.22;4.03;;;;;;;;;;5054077;28;20373;-61
2022/09/24 04:25:30;;;;;;;12.20;5.25;;;;;;;;;;5054529;28;20036;-62
2022/09/24 04:28:01;;;;;;;9.95;4.40;;;;;;;;;;5054291;28;20037;-61
2022/09/24 04:30:28;;;;;;;6.28;3.63;;;;;;;;;;5054530;28;20059;-60
2022/09/24 04:32:58;;;;;;;12.48;4.20;;;;;;;;;;5054086;28;20029;-62
2022/09/24 04:35:25;;;;;;;9.82;4.53;;;;;;;;;;5054387;28;20090;-61
2022/09/24 04:37:51;;;;;;;9.23;4.20;;;;;;;;;;5054543;28;20029;-61
2022/09/24 04:40:17;;;;;;;5.68;3.92;;;;;;;;;;5054181;28;20108;-61
2022/09/24 04:42:45;;;;;;;9.93;3.97;;;;;;;;;;5054212;28;20029;-62
2022/09/24 04:45:13;;;;;;;9.20;4.32;;;;;;;;;;5054247;28;20036;-62
2022/09/24 04:47:42;;;;;;;8.35;3.63;;;;;;;;;;5053954;28;20021;-61
2022/09/24 04:50:10;;;;;;;4.93;3.22;;;;;;;;;;5053313;28;20043;-60
2022/09/24 04:52:37;;;;;;;7.60;4.07;;;;;;;;;;5053477;28;20025;-62
2022/09/24 04:55:04;;;;;;;5.70;3.70;;;;;;;;;;5053470;28;20037;-61
2022/09/24 04:57:35;;;;;;;8.30;4.03;;;;;;;;;;5053702;28;20104;-61
2022/09/24 05:00:06;;;;;;;8.43;4.35;;;;;;;;;;5053409;28;20032;-60
2022/09/24 05:02:32;;;;;;;10.77;4.20;;;;;;;;;;5040341;28;20435;-62
2022/09/24 05:04:58;;;;;;;8.23;4.45;;;;;;;;;;5033788;28;20025;-62
2022/09/24 05:07:24;;;;;;;8.52;4.03;;;;;;;;;;5033702;28;20542;-64
2022/09/24 05:09:49;;;;;;;9.30;3.75;;;;;;;;;;5036281;28;20075;-63
2022/09/24 05:12:15;;;;;;;7.20;4.07;;;;;;;;;;5040278;28;20250;-62
2022/09/24 05:14:41;;;;;;;5.88;4.00;;;;;;;;;;5052445;28;20127;-61
2022/09/24 05:17:07;;;;;;;5.97;3.50;;;;;;;;;;5053871;28;20391;-64
2022/09/24 05:19:33;;;;;;;5.28;3.60;;;;;;;;;;5046470;28;20021;-60
2022/09/24 05:21:59;;;;;;;5.38;3.15;;;;;;;;;;5032933;28;20388;-61
2022/09/24 05:24:25;;;;;;;10.07;3.53;;;;;;;;;;5033680;28;20027;-63
2022/09/24 05:27:09;;;;;;;6.07;3.30;;;;;;;;;;5052767;28;20340;-65
2022/09/24 05:29:39;;;;;;;5.45;3.00;;;;;;;;;;5051415;28;20040;-64
2022/09/24 05:32:08;;;;;;;5.95;3.72;;;;;;;;;;5042176;28;20473;-64
2022/09/24 05:34:34;;;;;;;11.10;3.92;;;;;;;;;;5046253;28;20166;-64
2022/09/24 05:37:01;;;;;;;6.05;3.88;;;;;;;;;;5040269;28;20041;-62
2022/09/24 05:39:27;;;;;;;12.60;4.00;;;;;;;;;;5050241;28;20498;-68
2022/09/24 05:41:54;;;;;;;10.13;3.53;;;;;;;;;;5040226;28;20120;-68
2022/09/24 05:44:20;;;;;;;7.50;3.72;;;;;;;;;;5052578;28;20025;-68
2022/09/24 05:46:47;;;;;;;11.10;4.50;;;;;;;;;;5047546;28;20063;-66
2022/09/24 05:49:14;;;;;;;11.05;4.38;;;;;;;;;;5051996;28;20029;-66
2022/09/24 05:51:42;;;;;;;8.23;4.60;;;;;;;;;;5046285;28;20041;-69
2022/09/24 05:54:10;;;;;;;12.27;4.20;;;;;;;;;;5032755;28;20025;-64
2022/09/24 05:56:37;;;;;;;11.57;4.53;;;;;;;;;;5032616;28;20059;-65
2022/09/24 05:59:03;;;;;;;12.65;5.70;;;;;;;;;;5047952;28;20018;-65
2022/09/24 06:01:29;;;;;;;7.50;4.57;;;;;;;;;;5034213;28;20033;-65
2022/09/24 06:03:56;;;;;;;9.05;4.75;;;;;;;;;;5051755;28;20392;-65
2022/09/24 06:06:23;;;;;;;9.95;4.40;;;;;;;;;;5052242;28;20025;-65
2022/09/24 06:08:48;;;;;;;13.82;4.03;;;;;;;;;;5052081;28;20059;-65
2022/09/24 06:11:14;;;;;;;16.73;4.53;;;;;;;;;;5037439;28;20042;-65
2022/09/24 06:13:40;;;;;;;13.10;5.50;;;;;;;;;;5045679;28;20027;-65
2022/09/24 06:16:07;;;;;;;8.80;4.35;;;;;;;;;;5051805;28;20049;-65
2022/09/24 06:18:35;;;;;;;9.68;4.43;;;;;;;;;;5052336;28;20028;-64
2022/09/24 06:21:02;;;;;;;6.90;3.55;;;;;;;;;;5051934;28;20120;-65
2022/09/24 06:23:29;;;;;;;5.90;3.60;;;;;;;;;;5051867;28;20017;-65
2022/09/24 06:25:56;;;;;;;6.13;3.72;;;;;;;;;;5051376;28;20025;-65
2022/09/24 06:28:23;;;;;;;11.50;4.30;;;;;;;;;;5050038;28;20022;-65
2022/09/24 06:30:48;;;;;;;10.90;4.10;;;;;;;;;;5050506;28;20440;-66
2022/09/24 06:33:14;;;;;;;8.05;3.90;;;;;;;;;;5050271;28;20040;-66
2022/09/24 06:35:42;;;;;;;6.85;3.78;;;;;;;;;;5051637;28;20064;-65
2022/09/24 06:38:14;;;;;;;6.88;3.53;;;;;;;;;;5066925;28;20083;-67
2022/09/24 06:40:40;;;;;;;12.90;4.47;;;;;;;;;;5051574;28;20518;-64
2022/09/24 06:43:08;;;;;;;8.10;3.25;;;;;;;;;;5051095;28;20430;-64
2022/09/24 06:45:34;;;;;;;8.13;3.50;;;;;;;;;;5051906;28;20114;-65
2022/09/24 06:48:04;;;;;;;7.85;3.75;;;;;;;;;;5051983;28;20479;-68
2022/09/24 06:50:33;;;;;;;10.35;3.50;;;;;;;;;;5050639;28;20043;-66
2022/09/24 06:52:59;;;;;;;5.60;3.20;;;;;;;;;;5051956;28;20049;-64
2022/09/24 06:55:25;;;;;;;7.43;3.80;;;;;;;;;;5051395;28;20063;-65
2022/09/24 06:58:14;;;;;;;5.97;3.40;;;;;;;;;;5051862;28;20029;-65
2022/09/24 07:00:41;;;;;;;4.50;3.15;;;;;;;;;;5052025;28;20442;-67
2022/09/24 07:03:13;;;;;;;4.50;2.70;;;;;;;;;;5051871;28;20032;-65
2022/09/24 07:05:39;;;;;;;6.32;2.72;;;;;;;;;;5051746;28;20033;-66
2022/09/24 07:08:05;;;;;;;9.32;2.92;;;;;;;;;;5051333;28;20055;-66
2022/09/24 07:10:31;;;;;;;9.23;3.53;;;;;;;;;;5051548;28;20040;-66
2022/09/24 07:12:57;;;;;;;4.90;3.38;;;;;;;;;;5052752;28;20029;-68
2022/09/24 07:15:23;;;;;;;7.85;3.53;;;;;;;;;;5055373;28;20037;-66
2022/09/24 07:17:54;;;;;;;5.63;3.63;;;;;;;;;;5054233;28;20545;-65
2022/09/24 07:20:20;;;;;;;6.80;3.47;;;;;;;;;;5053470;28;20488;-67
2022/09/24 07:22:46;;;;;;;10.10;3.58;;;;;;;;;;5055456;28;20063;-69
2022/09/24 07:25:12;;;;;;;10.13;3.60;;;;;;;;;;5055080;28;20036;-67
2022/09/24 07:27:38;;;;;;;9.88;3.25;;;;;;;;;;5055211;28;20032;-68
2022/09/24 07:30:06;;;;;;;7.28;3.67;;;;;;;;;;5055092;28;20059;-66
2022/09/24 07:32:32;;;;;;;7.47;4.20;;;;;;;;;;5054771;28;20118;-67
2022/09/24 07:34:58;;;;;;;7.40;4.45;;;;;;;;;;5068453;28;20064;-65
2022/09/24 07:37:23;;;;;;;9.35;4.15;;;;;;;;;;5054599;28;20036;-66
2022/09/24 07:39:50;;;;;;;8.15;4.68;;;;;;;;;;5054823;28;20037;-68
2022/09/24 07:42:18;;;;;;;8.68;4.88;;;;;;;;;;5053442;28;20057;-66
2022/09/24 07:44:45;;;;;;;8.32;5.03;;;;;;;;;;5054160;28;20051;-66
2022/09/24 07:47:12;;;;;;;9.40;4.78;;;;;;;;;;5054653;28;20056;-65
2022/09/24 07:49:38;;;;;;;7.07;4.78;;;;;;;;;;5053369;28;20029;-67
2022/09/24 07:52:04;;;;;;;10.30;5.00;;;;;;;;;;5054535;28;20025;-65
2022/09/24 07:54:30;;;;;;;10.55;4.68;;;;;;;;;;5054657;28;20059;-66
2022/09/24 07:56:56;;;;;;;9.00;4.70;;;;;;;;;;5054551;28;20025;-66
2022/09/24 07:59:22;;;;;;;8.73;4.90;;;;;;;;;;5054416;28;20037;-67
2022/09/24 08:01:48;;;;;;;6.80;4.43;;;;;;;;;;5051271;28;20029;-66
2022/09/24 08:04:14;;;;;;;9.95;4.38;;;;;;;;;;5040858;28;20033;-64
2022/09/24 08:06:39;;;;;;;7.10;3.78;;;;;;;;;;5034040;28;20025;-64
2022/09/24 08:09:06;;;;;;;10.55;4.18;;;;;;;;;;5036150;28;20037;-64
2022/09/24 08:11:32;;;;;;;5.95;3.95;;;;;;;;;;5041202;28;20021;-66
2022/09/24 08:13:59;;;;;;;5.85;4.00;;;;;;;;;;5042903;28;20376;-65
2022/09/24 08:16:25;;;;;;;5.55;3.50;;;;;;;;;;5044356;28;20071;-65
2022/09/24 08:18:52;;;;;;;6.25;3.70;;;;;;;;;;5043511;28;20042;-64
2022/09/24 08:21:19;;;;;;;5.90;3.78;;;;;;;;;;5042274;28;20498;-67
2022/09/24 08:23:45;;;;;;;6.93;3.47;;;;;;;;;;5040540;28;20461;-65
2022/09/24 08:26:12;;;;;;;9.07;3.80;;;;;;;;;;5043855;28;20101;-66
2022/09/24 08:28:40;;;;;;;8.63;3.55;;;;;;;;;;5042995;28;20064;-66
2022/09/24 08:31:10;;;;;;;4.75;3.50;;;;;;;;;;5048342;28;20025;-68
2022/09/24 08:33:36;;;;;;;7.60;3.55;;;;;;;;;;5052295;28;20039;-67
2022/09/24 08:36:06;;;;;;;6.40;3.20;;;;;;;;;;5053264;28;20029;-67
2022/09/24 08:38:31;;;;;;;6.20;2.60;;;;;;;;;;5053686;28;20033;-67
2022/09/24 08:41:00;;;;;;;4.85;2.40;;;;;;;;;;5037837;28;20021;-67
2022/09/24 08:44:04;;;;;;;6.35;2.85;;;;;;;;;;5035535;28;20540;-68
2022/09/24 08:49:26;;;;;;;5.18;2.72;;;;;;;;;;5052951;28;20060;-68
2022/09/24 08:52:28;;;;;;;6.65;2.63;;;;;;;;;;5051740;28;20123;-68
2022/09/24 08:55:01;;;;;;;7.72;2.55;;;;;;;;;;5046085;28;20040;-68
2022/09/24 08:57:27;;;;;;;6.22;2.85;;;;;;;;;;5051914;28;20503;-68
2022/09/24 08:59:53;;;;;;;9.07;3.17;;;;;;;;;;5052955;28;20036;-69
2022/09/24 09:02:44;;;;;;;5.07;2.22;;;;;;;;;;5051819;28;20040;-68
2022/09/24 09:05:37;;;;;;;4.70;2.40;;;;;;;;;;5052467;28;20491;-68
2022/09/24 09:08:33;;;;;;;5.18;2.80;;;;;;;;;;5052861;28;20068;-69
2022/09/24 09:11:02;;;;;;;6.05;2.53;;;;;;;;;;5053105;28;20496;-68
2022/09/24 09:14:02;;;;;;;5.00;3.40;;;;;;;;;;5052297;28;20086;-69
2022/09/24 09:16:51;;;;;;;5.00;2.80;;;;;;;;;;5053038;28;20048;-67
2022/09/24 09:19:18;;;;;;;7.30;2.30;;;;;;;;;;5048327;28;20072;-68
2022/09/24 09:21:56;;;;;;;4.22;2.30;;;;;;;;;;5052802;28;20032;-68
2022/09/24 09:24:39;;;;;;;7.18;2.70;;;;;;;;;;5051323;28;20404;-66
2022/09/24 09:27:14;;;;;;;7.35;2.97;;;;;;;;;;5050990;28;20028;-67
2022/09/24 09:29:43;;;;;;;6.40;2.70;;;;;;;;;;5050920;28;20135;-68
2022/09/24 09:32:27;;;;;;;8.00;2.83;;;;;;;;;;5052659;28;20375;-69
2022/09/24 09:35:12;;;;;;;6.50;3.00;;;;;;;;;;5052543;28;20056;-69
2022/09/24 09:37:41;;;;;;;5.28;2.53;;;;;;;;;;5052104;28;20147;-69
2022/09/24 09:40:37;;;;;;;7.03;2.80;;;;;;;;;;5051822;28;20379;-69
2022/09/24 09:43:08;;;;;;;3.45;1.92;;;;;;;;;;5052710;28;20075;-67
2022/09/24 09:46:07;;;;;;;8.65;2.00;;;;;;;;;;5046121;28;20041;-67
2022/09/24 09:48:54;;;;;;;3.38;1.90;;;;;;;;;;5041886;28;20548;-66
2022/09/24 09:51:25;;;;;;;3.85;1.92;;;;;;;;;;5052523;28;20041;-67
2022/09/24 09:53:56;;;;;;;5.95;2.20;;;;;;;;;;5047930;28;20056;-68
2022/09/24 09:56:34;;;;;;;2.97;1.77;;;;;;;;;;5031297;28;20534;-67
2022/09/24 09:59:05;;;;;;;5.72;2.42;;;;;;;;;;5030886;28;20077;-67
2022/09/24 10:01:34;;;;;;;9.45;2.30;;;;;;;;;;5032263;28;20480;-69
2022/09/24 10:04:02;;;;;;;6.13;1.98;;;;;;;;;;5047238;28;20037;-69
2022/09/24 10:06:31;;;;;;;4.32;1.80;;;;;;;;;;5049702;28;20120;-68
2022/09/24 10:09:12;;;;;;;4.25;2.20;;;;;;;;;;5052368;28;20056;-67
2022/09/24 10:11:38;;;;;;;4.88;2.20;;;;;;;;;;5052103;28;20039;-67
2022/09/24 10:14:05;;;;;;;6.00;2.83;;;;;;;;;;5051996;28;20033;-69
2022/09/24 10:16:37;;;;;;;6.75;4.88;;;;;;;;;;5050504;28;20059;-69
2022/09/24 10:19:03;;;;;;;17.95;7.75;;;;;;;;;;5051170;28;20044;-67
2022/09/24 10:21:35;;;;;;;4.60;2.70;;;;;;;;;;5050034;28;20025;-68
2022/09/24 10:24:04;;;;;;;5.70;3.60;;;;;;;;;;5051622;28;20427;-67
2022/09/24 10:26:39;;;;;;;4.93;2.65;;;;;;;;;;5052094;28;20040;-67
2022/09/24 10:31:58;;;;;;;4.57;2.20;;;;;;;;;;5051620;28;20039;-69
2022/09/24 10:34:27;;;;;;;5.38;2.75;;;;;;;;;;5051828;28;20049;-67
2022/09/24 10:37:01;;;;;;;6.38;2.30;;;;;;;;;;5051908;28;20472;-66
2022/09/24 10:39:29;;;;;;;6.78;2.40;;;;;;;;;;5051771;28;20033;-66
2022/09/24 10:41:56;;;;;;;6.38;3.53;;;;;;;;;;5051962;28;20029;-65
2022/09/24 10:44:34;;;;;;;8.93;2.72;;;;;;;;;;5051590;28;20033;-67
2022/09/24 10:47:18;;;;;;;6.25;2.53;;;;;;;;;;5051649;28;20025;-66
2022/09/24 10:50:13;;;;;;;5.47;2.00;;;;;;;;;;5054282;28;20383;-66
2022/09/24 10:53:07;;;;;;;7.68;2.53;;;;;;;;;;5055841;28;20079;-65
2022/09/24 10:56:02;;;;;;;6.65;2.60;;;;;;;;;;5055429;28;20040;-70
2022/09/24 10:58:34;;;;;;;4.00;2.60;;;;;;;;;;5055629;28;20032;-67
2022/09/24 11:01:31;;;;;;;7.68;2.53;;;;;;;;;;5055305;28;20195;-67
2022/09/24 11:04:28;;;;;;;4.47;2.70;;;;;;;;;;5055744;28;20032;-69
2022/09/24 11:07:31;;;;;;;6.03;2.80;;;;;;;;;;5055428;28;20040;-69
2022/09/24 11:10:24;;;;;;;7.40;3.20;;;;;;;;;;5042116;28;20519;-66
2022/09/24 11:13:25;;;;;;;;;;;;;;;;;;5047389;28;20041;-64
2022/09/24 11:16:22;;;;;;;9.48;4.30;;;;;;;;;;5007115;28;19921;-67
2022/09/24 11:19:08;;;;;;;5.85;3.17;;;;;;;;;;5035256;28;20033;-67
2022/09/24 11:21:58;;;;;;;6.20;2.72;;;;;;;;;;5042799;28;20029;-67
2022/09/24 11:24:39;;;;;;;7.20;2.85;;;;;;;;;;5055394;28;20551;-65
2022/09/24 11:27:26;;;;;;;3.30;2.28;;;;;;;;;;5043096;28;20128;-65
2022/09/24 11:30:20;;;;;;;8.38;6.28;;;;;;;;;;5055584;28;20086;-66
2022/09/24 11:33:27;;;;;;;3.90;1.60;;;;;;;;;;5034856;28;20038;-66
2022/09/24 11:36:08;;;;;;;5.38;2.33;;;;;;;;;;5027156;28;20050;-65
2022/09/24 11:38:53;;;;;;;3.28;1.67;;;;;;;;;;5059811;28;20041;-68
2022/09/24 11:41:57;;;;;;;3.50;2.08;;;;;;;;;;5039800;28;20146;-67
2022/09/24 11:44:46;;;;;;;5.53;4.75;;;;;;;;;;5033218;28;20048;-66
2022/09/24 11:47:15;;;;;;;6.63;1.90;;;;;;;;;;5040966;28;20060;-66
2022/09/24 11:50:13;;;;;;;2.92;1.70;;;;;;;;;;5042077;28;20025;-68
2022/09/24 11:52:53;;;;;;;3.13;1.85;;;;;;;;;;5036656;28;20063;-69
2022/09/24 11:55:25;;;;;;;3.83;1.70;;;;;;;;;;5044158;28;20361;-66
2022/09/24 11:58:22;;;;;;;3.10;1.42;;;;;;;;;;5044965;28;20051;-71
2022/09/24 12:00:52;;;;;;;5.20;1.90;;;;;;;;;;5038063;28;20087;-68
2022/09/24 12:03:55;;;;;;;3.10;1.70;;;;;;;;;;5058302;28;20017;-68
2022/09/24 12:06:36;;;;;;;4.95;1.70;;;;;;;;;;5044591;28;20116;-67
2022/09/24 12:09:08;;;;;;;4.13;1.42;;;;;;;;;;5044436;28;20543;-67
2022/09/24 12:11:41;;;;;;;3.13;1.58;;;;;;;;;;5045185;28;20041;-66
2022/09/24 12:14:28;;;;;;;2.38;1.50;;;;;;;;;;5052271;28;20037;-66
2022/09/24 12:17:05;;;;;;;5.00;1.80;;;;;;;;;;5047567;28;20052;-73
2022/09/24 12:20:06;;;;;;;3.45;1.70;;;;;;;;;;5033886;28;20034;-72
2022/09/24 12:22:36;;;;;;;4.50;2.00;;;;;;;;;;5033836;28;20148;-71
2022/09/24 12:25:03;;;;;;;2.47;1.77;;;;;;;;;;5032973;28;20096;-70
2022/09/24 12:27:35;;;;;;;4.40;1.70;;;;;;;;;;5033994;28;20033;-68
2022/09/24 12:33:21;;;;;;;3.97;2.03;;;;;;;;;;5032613;28;20125;-70
2022/09/24 12:35:58;;;;;;;7.45;1.60;;;;;;;;;;5047532;28;20029;-66
2022/09/24 12:38:48;;;;;;;4.03;1.80;;;;;;;;;;5053324;28;20044;-70
2022/09/24 12:41:31;;;;;;;5.38;1.50;;;;;;;;;;5053269;28;20044;-69
2022/09/24 12:44:08;;;;;;;2.45;1.70;;;;;;;;;;5054123;28;20086;-69
2022/09/24 12:47:05;;;;;;;2.63;1.70;;;;;;;;;;5041953;28;20086;-68
2022/09/24 12:49:36;;;;;;;3.88;1.70;;;;;;;;;;5052457;28;20041;-67
2022/09/24 12:52:15;;;;;;;2.75;1.77;;;;;;;;;;5050806;28;20037;-66
2022/09/24 12:54:42;;;;;;;3.70;1.80;;;;;;;;;;5048136;28;20024;-66
2022/09/24 12:57:24;;;;;;;2.67;1.60;;;;;;;;;;5052908;28;20020;-67
2022/09/24 12:59:56;;;;;;;4.43;2.05;;;;;;;;;;5053119;28;20032;-65
2022/09/24 13:02:25;;;;;;;2.88;1.98;;;;;;;;;;5049217;28;20029;-70
2022/09/24 13:05:31;;;;;;;13.45;6.90;;;;;;;;;;5052350;28;20086;-67
2022/09/24 13:08:15;;;;;;;7.35;3.60;;;;;;;;;;5044967;28;20498;-65
2022/09/24 13:10:57;;;;;;;9.10;6.97;;;;;;;;;;5050185;28;20029;-66
2022/09/24 13:13:29;;;;;;;2.55;1.42;;;;;;;;;;5051907;28;20071;-65
2022/09/24 13:16:05;;;;;;;1.73;1.40;;;;;;;;;;5047880;28;20065;-67
2022/09/24 13:18:36;;;;;;;3.22;1.50;;;;;;;;;;5043116;28;20040;-67
2022/09/24 13:21:07;;;;;;;5.25;2.00;;;;;;;;;;5048863;28;20387;-66
2022/09/24 13:23:36;;;;;;;4.85;1.92;;;;;;;;;;5041845;28;20029;-66
2022/09/24 13:26:05;;;;;;;5.43;4.03;;;;;;;;;;5042375;28;20021;-66
2022/09/24 13:28:59;;;;;;;17.08;12.48;;;;;;;;;;5049297;28;20032;-65
2022/09/24 13:31:28;;;;;;;5.15;2.95;;;;;;;;;;5038288;28;20021;-71
2022/09/24 13:34:09;;;;;;;2.53;1.63;;;;;;;;;;5039059;28;20034;-66
2022/09/24 13:36:44;;;;;;;1.90;1.40;;;;;;;;;;5042569;28;20072;-69
2022/09/24 13:39:25;;;;;;;2.08;1.38;;;;;;;;;;5045672;28;20040;-71
2022/09/24 13:42:00;;;;;;;2.55;1.55;;;;;;;;;;5045207;28;20041;-70
2022/09/24 13:44:34;;;;;;;4.20;1.40;;;;;;;;;;5051531;28;20108;-67
2022/09/24 13:47:15;;;;;;;4.72;1.60;;;;;;;;;;5051170;28;20360;-67
2022/09/24 13:49:45;;;;;;;4.50;2.08;;;;;;;;;;5043414;28;20044;-67
2022/09/24 13:52:23;;;;;;;8.93;2.35;;;;;;;;;;5049793;28;20069;-68
2022/09/24 13:54:55;;;;;;;5.55;1.60;;;;;;;;;;5040730;28;20419;-69
2022/09/24 13:57:27;;;;;;;1.83;1.33;;;;;;;;;;5046227;28;20030;-65
2022/09/24 14:00:15;;;;;;;6.95;1.85;;;;;;;;;;5028852;28;20033;-65
2022/09/24 14:02:51;;;;;;;2.25;1.67;;;;;;;;;;5040309;28;20152;-67
2022/09/24 14:05:18;;;;;;;2.17;1.55;;;;;;;;;;5041657;28;20033;-69
2022/09/24 14:08:01;;;;;;;4.05;1.33;;;;;;;;;;5043302;28;20470;-65
2022/09/24 14:10:26;;;;;;;5.38;2.08;;;;;;;;;;5044974;28;20044;-66
2022/09/24 14:13:22;;;;;;;4.53;1.73;;;;;;;;;;5045509;28;20032;-66
2022/09/24 14:15:54;;;;;;;2.50;1.75;;;;;;;;;;5040259;28;20050;-64
2022/09/24 14:18:20;;;;;;;1.90;1.20;;;;;;;;;;5047187;28;20451;-64
2022/09/24 14:20:55;;;;;;;5.03;2.00;;;;;;;;;;5061540;28;20499;-65
2022/09/24 14:23:24;;;;;;;2.38;1.50;;;;;;;;;;5042598;28;20120;-65
2022/09/24 14:25:51;;;;;;;2.55;1.60;;;;;;;;;;5046798;28;20021;-66
2022/09/24 14:28:19;;;;;;;3.70;1.98;;;;;;;;;;5045552;28;20112;-66
2022/09/24 14:30:51;;;;;;;3.90;1.42;;;;;;;;;;5047110;28;20450;-66
2022/09/24 14:33:21;;;;;;;2.92;1.33;;;;;;;;;;5048912;28;20037;-68
2022/09/24 14:35:53;;;;;;;2.00;1.50;;;;;;;;;;5049726;28;20500;-66
2022/09/24 14:38:28;;;;;;;6.20;1.60;;;;;;;;;;5046723;28;20055;-65
2022/09/24 14:41:03;;;;;;;5.85;2.78;;;;;;;;;;5048868;28;20029;-65
2022/09/24 14:43:44;;;;;;;3.53;1.80;;;;;;;;;;5038417;28;20512;-65
2022/09/24 14:46:31;;;;;;;5.20;1.55;;;;;;;;;;5042174;28;20072;-66
2022/09/24 14:49:17;;;;;;;6.88;1.92;;;;;;;;;;5033453;28;20029;-66
2022/09/24 14:51:57;;;;;;;3.65;1.50;;;;;;;;;;5037691;28;20033;-67
2022/09/24 14:54:39;;;;;;;1.55;1.15;;;;;;;;;;5038470;28;20034;-66
2022/09/24 14:57:10;;;;;;;3.72;1.88;;;;;;;;;;5042040;28;20414;-67
2022/09/24 14:59:37;;;;;;;5.32;2.42;;;;;;;;;;5053326;28;20036;-66
2022/09/24 15:02:21;;;;;;;3.55;2.28;;;;;;;;;;5041471;28;20419;-66
2022/09/24 15:04:51;;;;;;;4.25;1.90;;;;;;;;;;5034137;28;20435;-66
2022/09/24 15:07:20;;;;;;;6.85;1.73;;;;;;;;;;5033016;28;20017;-66
2022/09/24 15:09:51;;;;;;;5.95;1.80;;;;;;;;;;5046500;28;20116;-65
2022/09/24 15:12:29;;;;;;;5.93;1.70;;;;;;;;;;5050055;28;20021;-66
2022/09/24 15:15:01;;;;;;;3.72;1.67;;;;;;;;;;5054558;28;20476;-64
2022/09/24 15:17:32;;;;;;;7.25;2.00;;;;;;;;;;5053641;28;20100;-65
2022/09/24 15:19:59;;;;;;;2.50;1.80;;;;;;;;;;5056890;28;20037;-65
2022/09/24 15:22:26;;;;;;;7.25;1.90;;;;;;;;;;5074299;28;20031;-66
2022/09/24 15:24:57;;;;;;;6.47;1.92;;;;;;;;;;5072770;28;20032;-66
2022/09/24 15:27:28;;;;;;;3.58;1.90;;;;;;;;;;5073715;28;20036;-66